sensor_id;sensor_type;location;lat;lon;timestamp;P1;durP1;ratioP1;P2;durP2;ratioP2
19940;SDS011;10132;50.864;5.176;2022-09-21T00:01:55;8.00;;;3.87;;
19940;SDS011;10132;50.864;5.176;2022-09-21T00:03:59;5.27;;;4.20;;
19940;SDS011;10132;50.864;5.176;2022-09-21T00:06:03;7.87;;;3.97;;
19940;SDS011;10132;50.864;5.176;2022-09-21T00:08:07;8.23;;;4.10;;
19940;SDS011;10132;50.864;5.176;2022-09-21T00:10:11;8.03;;;5.03;;
19940;SDS011;10132;50.864;5.176;2022-09-21T00:12:14;16.43;;;10.33;;
19940;SDS011;10132;50.864;5.176;2022-09-21T00:14:16;16.63;;;11.37;;
19940;SDS011;10132;50.864;5.176;2022-09-21T00:16:18;15.97;;;10.93;;
19940;SDS011;10132;50.864;5.176;2022-09-21T00:18:21;13.53;;;8.87;;
19940;SDS011;10132;50.864;5.176;2022-09-21T00:20:25;13.60;;;8.63;;
19940;SDS011;10132;50.864;5.176;2022-09-21T00:22:28;8.13;;;5.87;;
19940;SDS011;10132;50.864;5.176;2022-09-21T00:24:30;9.80;;;5.50;;
19940;SDS011;10132;50.864;5.176;2022-09-21T00:26:33;10.73;;;4.87;;
19940;SDS011;10132;50.864;5.176;2022-09-21T00:28:35;8.40;;;5.17;;
19940;SDS011;10132;50.864;5.176;2022-09-21T00:30:39;12.07;;;5.60;;
19940;SDS011;10132;50.864;5.176;2022-09-21T00:32:41;11.10;;;6.40;;
19940;SDS011;10132;50.864;5.176;2022-09-21T00:34:43;13.73;;;6.10;;
19940;SDS011;10132;50.864;5.176;2022-09-21T00:36:47;8.47;;;5.07;;
19940;SDS011;10132;50.864;5.176;2022-09-21T00:38:49;9.13;;;5.13;;
19940;SDS011;10132;50.864;5.176;2022-09-21T00:40:53;8.83;;;5.43;;
19940;SDS011;10132;50.864;5.176;2022-09-21T00:43:09;9.37;;;5.30;;
19940;SDS011;10132;50.864;5.176;2022-09-21T00:45:13;9.23;;;4.83;;
19940;SDS011;10132;50.864;5.176;2022-09-21T00:47:21;7.83;;;5.00;;
19940;SDS011;10132;50.864;5.176;2022-09-21T00:49:27;8.10;;;5.37;;
19940;SDS011;10132;50.864;5.176;2022-09-21T00:51:30;5.90;;;4.60;;
19940;SDS011;10132;50.864;5.176;2022-09-21T00:53:34;8.50;;;4.77;;
19940;SDS011;10132;50.864;5.176;2022-09-21T00:55:39;7.50;;;4.60;;
19940;SDS011;10132;50.864;5.176;2022-09-21T00:57:43;6.23;;;4.60;;
19940;SDS011;10132;50.864;5.176;2022-09-21T00:59:50;4.60;;;4.20;;
19940;SDS011;10132;50.864;5.176;2022-09-21T01:01:56;7.33;;;4.60;;
19940;SDS011;10132;50.864;5.176;2022-09-21T01:03:58;5.07;;;4.33;;
19940;SDS011;10132;50.864;5.176;2022-09-21T01:06:01;5.40;;;4.00;;
19940;SDS011;10132;50.864;5.176;2022-09-21T01:08:03;9.50;;;5.00;;
19940;SDS011;10132;50.864;5.176;2022-09-21T01:10:10;6.80;;;4.30;;
19940;SDS011;10132;50.864;5.176;2022-09-21T01:12:16;6.80;;;4.57;;
19940;SDS011;10132;50.864;5.176;2022-09-21T01:17:03;6.30;;;3.77;;
19940;SDS011;10132;50.864;5.176;2022-09-21T01:19:14;5.13;;;3.40;;
19940;SDS011;10132;50.864;5.176;2022-09-21T01:21:31;4.00;;;3.60;;
19940;SDS011;10132;50.864;5.176;2022-09-21T01:26:40;4.27;;;3.13;;
19940;SDS011;10132;50.864;5.176;2022-09-21T01:29:08;7.97;;;4.23;;
19940;SDS011;10132;50.864;5.176;2022-09-21T01:31:16;7.53;;;5.60;;
19940;SDS011;10132;50.864;5.176;2022-09-21T01:33:24;19.40;;;7.37;;
19940;SDS011;10132;50.864;5.176;2022-09-21T01:35:30;10.30;;;6.80;;
19940;SDS011;10132;50.864;5.176;2022-09-21T01:37:36;13.03;;;7.30;;
19940;SDS011;10132;50.864;5.176;2022-09-21T01:39:43;8.67;;;4.93;;
19940;SDS011;10132;50.864;5.176;2022-09-21T01:41:50;13.03;;;6.13;;
19940;SDS011;10132;50.864;5.176;2022-09-21T01:43:54;10.23;;;6.07;;
19940;SDS011;10132;50.864;5.176;2022-09-21T01:46:03;13.63;;;6.53;;
19940;SDS011;10132;50.864;5.176;2022-09-21T01:48:09;13.77;;;7.00;;
19940;SDS011;10132;50.864;5.176;2022-09-21T01:50:14;14.23;;;7.60;;
19940;SDS011;10132;50.864;5.176;2022-09-21T01:52:20;13.07;;;6.97;;
19940;SDS011;10132;50.864;5.176;2022-09-21T01:54:27;15.17;;;7.53;;
19940;SDS011;10132;50.864;5.176;2022-09-21T01:56:35;14.00;;;8.03;;
19940;SDS011;10132;50.864;5.176;2022-09-21T01:58:41;32.70;;;9.17;;
19940;SDS011;10132;50.864;5.176;2022-09-21T02:00:48;25.83;;;9.80;;
19940;SDS011;10132;50.864;5.176;2022-09-21T02:02:56;22.27;;;8.73;;
19940;SDS011;10132;50.864;5.176;2022-09-21T02:05:04;22.90;;;9.03;;
19940;SDS011;10132;50.864;5.176;2022-09-21T02:07:07;19.03;;;8.50;;
19940;SDS011;10132;50.864;5.176;2022-09-21T02:09:10;14.37;;;8.13;;
19940;SDS011;10132;50.864;5.176;2022-09-21T02:11:12;23.93;;;9.37;;
19940;SDS011;10132;50.864;5.176;2022-09-21T02:13:14;15.67;;;8.60;;
19940;SDS011;10132;50.864;5.176;2022-09-21T02:15:18;26.10;;;8.10;;
19940;SDS011;10132;50.864;5.176;2022-09-21T02:17:31;23.93;;;7.83;;
19940;SDS011;10132;50.864;5.176;2022-09-21T02:19:42;19.80;;;8.10;;
19940;SDS011;10132;50.864;5.176;2022-09-21T02:21:50;16.63;;;7.73;;
19940;SDS011;10132;50.864;5.176;2022-09-21T02:24:00;18.60;;;8.00;;
19940;SDS011;10132;50.864;5.176;2022-09-21T02:26:09;8.57;;;7.30;;
19940;SDS011;10132;50.864;5.176;2022-09-21T02:28:16;11.53;;;7.20;;
19940;SDS011;10132;50.864;5.176;2022-09-21T02:30:26;12.43;;;7.90;;
19940;SDS011;10132;50.864;5.176;2022-09-21T02:32:33;9.03;;;6.77;;
19940;SDS011;10132;50.864;5.176;2022-09-21T02:34:44;11.13;;;7.50;;
19940;SDS011;10132;50.864;5.176;2022-09-21T02:36:50;10.77;;;7.80;;
19940;SDS011;10132;50.864;5.176;2022-09-21T02:38:59;8.47;;;6.97;;
19940;SDS011;10132;50.864;5.176;2022-09-21T02:41:06;8.43;;;7.27;;
19940;SDS011;10132;50.864;5.176;2022-09-21T02:43:17;12.37;;;7.03;;
19940;SDS011;10132;50.864;5.176;2022-09-21T02:45:23;9.93;;;7.80;;
19940;SDS011;10132;50.864;5.176;2022-09-21T02:47:29;9.27;;;6.30;;
19940;SDS011;10132;50.864;5.176;2022-09-21T02:49:37;14.53;;;6.67;;
19940;SDS011;10132;50.864;5.176;2022-09-21T02:51:44;8.00;;;6.97;;
19940;SDS011;10132;50.864;5.176;2022-09-21T02:53:50;9.20;;;5.97;;
19940;SDS011;10132;50.864;5.176;2022-09-21T02:55:55;12.90;;;7.77;;
19940;SDS011;10132;50.864;5.176;2022-09-21T02:58:02;18.63;;;7.90;;
19940;SDS011;10132;50.864;5.176;2022-09-21T03:00:08;12.70;;;6.93;;
19940;SDS011;10132;50.864;5.176;2022-09-21T03:02:11;8.60;;;6.13;;
19940;SDS011;10132;50.864;5.176;2022-09-21T03:04:13;9.60;;;5.80;;
19940;SDS011;10132;50.864;5.176;2022-09-21T03:06:16;7.17;;;6.07;;
19940;SDS011;10132;50.864;5.176;2022-09-21T03:08:19;7.70;;;5.97;;
19940;SDS011;10132;50.864;5.176;2022-09-21T03:10:21;8.67;;;5.60;;
19940;SDS011;10132;50.864;5.176;2022-09-21T03:12:24;7.60;;;5.70;;
19940;SDS011;10132;50.864;5.176;2022-09-21T03:14:26;6.60;;;5.43;;
19940;SDS011;10132;50.864;5.176;2022-09-21T03:16:28;6.33;;;5.67;;
19940;SDS011;10132;50.864;5.176;2022-09-21T03:18:30;11.83;;;5.53;;
19940;SDS011;10132;50.864;5.176;2022-09-21T03:20:34;7.23;;;5.87;;
19940;SDS011;10132;50.864;5.176;2022-09-21T03:22:36;6.67;;;5.80;;
19940;SDS011;10132;50.864;5.176;2022-09-21T03:24:39;5.70;;;5.13;;
19940;SDS011;10132;50.864;5.176;2022-09-21T03:26:47;8.37;;;6.20;;
19940;SDS011;10132;50.864;5.176;2022-09-21T03:28:49;7.17;;;6.17;;
19940;SDS011;10132;50.864;5.176;2022-09-21T03:30:53;8.37;;;5.50;;
19940;SDS011;10132;50.864;5.176;2022-09-21T03:32:55;8.33;;;6.07;;
19940;SDS011;10132;50.864;5.176;2022-09-21T03:34:57;5.90;;;5.37;;
19940;SDS011;10132;50.864;5.176;2022-09-21T03:36:59;7.93;;;6.13;;
19940;SDS011;10132;50.864;5.176;2022-09-21T03:39:02;7.37;;;5.97;;
19940;SDS011;10132;50.864;5.176;2022-09-21T03:41:05;8.37;;;6.57;;
19940;SDS011;10132;50.864;5.176;2022-09-21T03:43:07;11.07;;;6.33;;
19940;SDS011;10132;50.864;5.176;2022-09-21T03:45:10;7.67;;;6.83;;
19940;SDS011;10132;50.864;5.176;2022-09-21T03:47:12;20.33;;;7.40;;
19940;SDS011;10132;50.864;5.176;2022-09-21T03:49:14;14.70;;;6.87;;
19940;SDS011;10132;50.864;5.176;2022-09-21T03:51:16;14.13;;;6.50;;
19940;SDS011;10132;50.864;5.176;2022-09-21T03:53:18;10.37;;;6.70;;
19940;SDS011;10132;50.864;5.176;2022-09-21T03:55:20;9.07;;;7.33;;
19940;SDS011;10132;50.864;5.176;2022-09-21T03:57:24;11.70;;;6.70;;
19940;SDS011;10132;50.864;5.176;2022-09-21T03:59:26;7.50;;;6.57;;
19940;SDS011;10132;50.864;5.176;2022-09-21T04:01:28;10.33;;;6.13;;
19940;SDS011;10132;50.864;5.176;2022-09-21T04:03:30;7.93;;;6.47;;
19940;SDS011;10132;50.864;5.176;2022-09-21T04:05:32;8.20;;;6.90;;
19940;SDS011;10132;50.864;5.176;2022-09-21T04:07:34;10.77;;;7.07;;
19940;SDS011;10132;50.864;5.176;2022-09-21T04:09:36;7.80;;;6.63;;
19940;SDS011;10132;50.864;5.176;2022-09-21T04:11:38;11.17;;;7.30;;
19940;SDS011;10132;50.864;5.176;2022-09-21T04:13:42;7.40;;;6.73;;
19940;SDS011;10132;50.864;5.176;2022-09-21T04:15:44;9.00;;;7.10;;
19940;SDS011;10132;50.864;5.176;2022-09-21T04:17:46;7.57;;;6.70;;
19940;SDS011;10132;50.864;5.176;2022-09-21T04:19:52;8.90;;;6.93;;
19940;SDS011;10132;50.864;5.176;2022-09-21T04:21:54;9.30;;;6.67;;
19940;SDS011;10132;50.864;5.176;2022-09-21T04:23:56;13.53;;;6.63;;
19940;SDS011;10132;50.864;5.176;2022-09-21T04:25:57;8.03;;;7.17;;
19940;SDS011;10132;50.864;5.176;2022-09-21T04:28:00;7.90;;;6.43;;
19940;SDS011;10132;50.864;5.176;2022-09-21T04:30:04;7.33;;;6.10;;
19940;SDS011;10132;50.864;5.176;2022-09-21T04:32:07;7.63;;;5.90;;
19940;SDS011;10132;50.864;5.176;2022-09-21T04:34:11;7.30;;;6.10;;
19940;SDS011;10132;50.864;5.176;2022-09-21T04:36:14;7.93;;;6.90;;
19940;SDS011;10132;50.864;5.176;2022-09-21T04:38:16;9.43;;;7.07;;
19940;SDS011;10132;50.864;5.176;2022-09-21T04:40:18;7.23;;;6.63;;
19940;SDS011;10132;50.864;5.176;2022-09-21T04:42:20;15.37;;;7.47;;
19940;SDS011;10132;50.864;5.176;2022-09-21T04:44:22;11.03;;;7.60;;
19940;SDS011;10132;50.864;5.176;2022-09-21T04:46:25;8.67;;;7.10;;
19940;SDS011;10132;50.864;5.176;2022-09-21T04:48:27;8.43;;;7.53;;
19940;SDS011;10132;50.864;5.176;2022-09-21T04:50:29;9.83;;;7.17;;
19940;SDS011;10132;50.864;5.176;2022-09-21T04:52:31;9.23;;;7.10;;
19940;SDS011;10132;50.864;5.176;2022-09-21T04:54:33;7.87;;;7.10;;
19940;SDS011;10132;50.864;5.176;2022-09-21T04:56:35;7.30;;;6.60;;
19940;SDS011;10132;50.864;5.176;2022-09-21T04:58:37;25.03;;;7.47;;
19940;SDS011;10132;50.864;5.176;2022-09-21T05:00:39;10.60;;;7.57;;
19940;SDS011;10132;50.864;5.176;2022-09-21T05:02:42;9.90;;;7.93;;
19940;SDS011;10132;50.864;5.176;2022-09-21T05:04:44;9.03;;;8.03;;
19940;SDS011;10132;50.864;5.176;2022-09-21T05:06:46;8.03;;;7.33;;
19940;SDS011;10132;50.864;5.176;2022-09-21T05:08:48;12.20;;;7.53;;
19940;SDS011;10132;50.864;5.176;2022-09-21T05:11:07;12.90;;;8.00;;
19940;SDS011;10132;50.864;5.176;2022-09-21T05:13:12;10.40;;;8.07;;
19940;SDS011;10132;50.864;5.176;2022-09-21T05:15:14;10.77;;;8.47;;
19940;SDS011;10132;50.864;5.176;2022-09-21T05:17:16;9.37;;;8.47;;
19940;SDS011;10132;50.864;5.176;2022-09-21T05:19:23;9.57;;;8.17;;
19940;SDS011;10132;50.864;5.176;2022-09-21T05:21:25;9.57;;;8.67;;
19940;SDS011;10132;50.864;5.176;2022-09-21T05:23:27;8.60;;;7.90;;
19940;SDS011;10132;50.864;5.176;2022-09-21T05:25:31;9.13;;;8.23;;
19940;SDS011;10132;50.864;5.176;2022-09-21T05:27:33;8.80;;;7.90;;
19940;SDS011;10132;50.864;5.176;2022-09-21T05:29:35;12.67;;;8.80;;
19940;SDS011;10132;50.864;5.176;2022-09-21T05:31:38;13.23;;;8.27;;
19940;SDS011;10132;50.864;5.176;2022-09-21T05:33:46;9.03;;;7.73;;
19940;SDS011;10132;50.864;5.176;2022-09-21T05:35:57;13.67;;;8.97;;
19940;SDS011;10132;50.864;5.176;2022-09-21T05:38:06;9.50;;;7.97;;
19940;SDS011;10132;50.864;5.176;2022-09-21T05:40:13;11.43;;;8.20;;
19940;SDS011;10132;50.864;5.176;2022-09-21T05:42:16;11.23;;;8.57;;
19940;SDS011;10132;50.864;5.176;2022-09-21T05:44:18;15.57;;;8.50;;
19940;SDS011;10132;50.864;5.176;2022-09-21T05:46:24;11.60;;;7.83;;
19940;SDS011;10132;50.864;5.176;2022-09-21T05:48:38;9.70;;;8.80;;
19940;SDS011;10132;50.864;5.176;2022-09-21T05:50:46;10.50;;;8.53;;
19940;SDS011;10132;50.864;5.176;2022-09-21T05:52:56;9.70;;;8.80;;
19940;SDS011;10132;50.864;5.176;2022-09-21T05:55:11;9.63;;;8.70;;
19940;SDS011;10132;50.864;5.176;2022-09-21T05:57:28;10.87;;;8.27;;
19940;SDS011;10132;50.864;5.176;2022-09-21T05:59:41;9.73;;;8.77;;
19940;SDS011;10132;50.864;5.176;2022-09-21T06:01:53;9.60;;;8.60;;
19940;SDS011;10132;50.864;5.176;2022-09-21T06:04:01;9.07;;;8.17;;
19940;SDS011;10132;50.864;5.176;2022-09-21T06:06:04;9.77;;;8.77;;
19940;SDS011;10132;50.864;5.176;2022-09-21T06:08:09;9.67;;;8.50;;
19940;SDS011;10132;50.864;5.176;2022-09-21T06:10:12;9.63;;;7.40;;
19940;SDS011;10132;50.864;5.176;2022-09-21T06:12:14;9.80;;;8.77;;
19940;SDS011;10132;50.864;5.176;2022-09-21T06:14:17;9.87;;;8.83;;
19940;SDS011;10132;50.864;5.176;2022-09-21T06:16:23;14.30;;;8.67;;
19940;SDS011;10132;50.864;5.176;2022-09-21T06:18:25;13.60;;;9.13;;
19940;SDS011;10132;50.864;5.176;2022-09-21T06:20:27;16.93;;;9.10;;
19940;SDS011;10132;50.864;5.176;2022-09-21T06:22:29;15.83;;;8.97;;
19940;SDS011;10132;50.864;5.176;2022-09-21T06:24:32;13.10;;;9.20;;
19940;SDS011;10132;50.864;5.176;2022-09-21T06:26:34;9.77;;;8.97;;
19940;SDS011;10132;50.864;5.176;2022-09-21T06:28:36;35.80;;;10.13;;
19940;SDS011;10132;50.864;5.176;2022-09-21T06:30:38;11.50;;;9.07;;
19940;SDS011;10132;50.864;5.176;2022-09-21T06:32:41;10.47;;;9.40;;
19940;SDS011;10132;50.864;5.176;2022-09-21T06:34:43;14.83;;;10.30;;
19940;SDS011;10132;50.864;5.176;2022-09-21T06:36:45;19.70;;;10.23;;
19940;SDS011;10132;50.864;5.176;2022-09-21T06:38:47;24.90;;;10.63;;
19940;SDS011;10132;50.864;5.176;2022-09-21T06:40:50;17.00;;;11.10;;
19940;SDS011;10132;50.864;5.176;2022-09-21T06:42:54;18.93;;;11.90;;
19940;SDS011;10132;50.864;5.176;2022-09-21T06:44:57;22.57;;;12.30;;
19940;SDS011;10132;50.864;5.176;2022-09-21T06:46:59;15.80;;;13.10;;
19940;SDS011;10132;50.864;5.176;2022-09-21T06:49:01;48.40;;;13.60;;
19940;SDS011;10132;50.864;5.176;2022-09-21T06:51:04;18.37;;;11.60;;
19940;SDS011;10132;50.864;5.176;2022-09-21T06:53:06;30.93;;;13.83;;
19940;SDS011;10132;50.864;5.176;2022-09-21T06:55:08;27.27;;;14.53;;
19940;SDS011;10132;50.864;5.176;2022-09-21T06:57:12;24.33;;;14.13;;
19940;SDS011;10132;50.864;5.176;2022-09-21T06:59:14;88.43;;;15.53;;
19940;SDS011;10132;50.864;5.176;2022-09-21T07:01:15;29.97;;;14.63;;
19940;SDS011;10132;50.864;5.176;2022-09-21T07:03:18;17.13;;;14.43;;
19940;SDS011;10132;50.864;5.176;2022-09-21T07:05:19;17.07;;;13.63;;
19940;SDS011;10132;50.864;5.176;2022-09-21T07:07:22;15.07;;;13.47;;
19940;SDS011;10132;50.864;5.176;2022-09-21T07:09:24;23.43;;;15.07;;
19940;SDS011;10132;50.864;5.176;2022-09-21T07:11:25;35.03;;;15.00;;
19940;SDS011;10132;50.864;5.176;2022-09-21T07:13:29;21.50;;;14.27;;
19940;SDS011;10132;50.864;5.176;2022-09-21T07:15:31;17.03;;;14.13;;
19940;SDS011;10132;50.864;5.176;2022-09-21T07:17:33;40.27;;;16.03;;
19940;SDS011;10132;50.864;5.176;2022-09-21T07:19:36;36.90;;;14.37;;
19940;SDS011;10132;50.864;5.176;2022-09-21T07:21:38;51.60;;;14.03;;
19940;SDS011;10132;50.864;5.176;2022-09-21T07:23:40;21.53;;;13.77;;
19940;SDS011;10132;50.864;5.176;2022-09-21T07:25:43;27.90;;;14.67;;
19940;SDS011;10132;50.864;5.176;2022-09-21T07:27:49;44.90;;;15.90;;
19940;SDS011;10132;50.864;5.176;2022-09-21T07:29:52;29.97;;;14.57;;
19940;SDS011;10132;50.864;5.176;2022-09-21T07:31:54;20.73;;;14.70;;
19940;SDS011;10132;50.864;5.176;2022-09-21T07:33:56;166.63;;;16.73;;
19940;SDS011;10132;50.864;5.176;2022-09-21T07:35:58;17.97;;;14.10;;
19940;SDS011;10132;50.864;5.176;2022-09-21T07:38:01;20.53;;;14.03;;
19940;SDS011;10132;50.864;5.176;2022-09-21T07:40:05;21.73;;;15.03;;
19940;SDS011;10132;50.864;5.176;2022-09-21T07:42:08;23.20;;;16.50;;
19940;SDS011;10132;50.864;5.176;2022-09-21T07:44:10;31.97;;;16.10;;
19940;SDS011;10132;50.864;5.176;2022-09-21T07:46:13;28.50;;;14.90;;
19940;SDS011;10132;50.864;5.176;2022-09-21T07:48:15;19.70;;;15.17;;
19940;SDS011;10132;50.864;5.176;2022-09-21T07:50:17;47.03;;;15.50;;
19940;SDS011;10132;50.864;5.176;2022-09-21T07:52:19;24.00;;;13.87;;
19940;SDS011;10132;50.864;5.176;2022-09-21T07:54:22;46.30;;;14.97;;
19940;SDS011;10132;50.864;5.176;2022-09-21T07:56:24;20.17;;;14.57;;
19940;SDS011;10132;50.864;5.176;2022-09-21T07:58:26;15.50;;;13.33;;
19940;SDS011;10132;50.864;5.176;2022-09-21T08:00:46;14.67;;;13.27;;
19940;SDS011;10132;50.864;5.176;2022-09-21T08:02:49;22.70;;;13.63;;
19940;SDS011;10132;50.864;5.176;2022-09-21T08:04:51;17.17;;;12.50;;
19940;SDS011;10132;50.864;5.176;2022-09-21T08:06:53;24.63;;;13.60;;
19940;SDS011;10132;50.864;5.176;2022-09-21T08:08:56;23.63;;;14.43;;
19940;SDS011;10132;50.864;5.176;2022-09-21T08:11:00;21.10;;;12.43;;
19940;SDS011;10132;50.864;5.176;2022-09-21T08:13:03;36.97;;;16.30;;
19940;SDS011;10132;50.864;5.176;2022-09-21T08:15:05;16.10;;;14.07;;
19940;SDS011;10132;50.864;5.176;2022-09-21T08:17:08;16.30;;;14.30;;
19940;SDS011;10132;50.864;5.176;2022-09-21T08:19:11;18.30;;;14.70;;
19940;SDS011;10132;50.864;5.176;2022-09-21T08:21:13;32.27;;;13.10;;
19940;SDS011;10132;50.864;5.176;2022-09-21T08:23:15;13.77;;;12.40;;
19940;SDS011;10132;50.864;5.176;2022-09-21T08:25:17;24.27;;;13.23;;
19940;SDS011;10132;50.864;5.176;2022-09-21T08:27:19;15.57;;;12.30;;
19940;SDS011;10132;50.864;5.176;2022-09-21T08:29:22;15.47;;;13.20;;
19940;SDS011;10132;50.864;5.176;2022-09-21T08:31:24;14.80;;;13.30;;
19940;SDS011;10132;50.864;5.176;2022-09-21T08:33:27;24.57;;;14.20;;
19940;SDS011;10132;50.864;5.176;2022-09-21T08:35:30;15.40;;;13.27;;
19940;SDS011;10132;50.864;5.176;2022-09-21T08:37:33;16.57;;;13.57;;
19940;SDS011;10132;50.864;5.176;2022-09-21T08:39:37;15.37;;;12.50;;
19940;SDS011;10132;50.864;5.176;2022-09-21T08:41:45;13.93;;;10.90;;
19940;SDS011;10132;50.864;5.176;2022-09-21T08:43:58;13.47;;;11.20;;
19940;SDS011;10132;50.864;5.176;2022-09-21T08:46:09;11.57;;;10.47;;
19940;SDS011;10132;50.864;5.176;2022-09-21T08:48:16;11.97;;;10.87;;
19940;SDS011;10132;50.864;5.176;2022-09-21T08:50:32;11.97;;;10.87;;
19940;SDS011;10132;50.864;5.176;2022-09-21T08:52:37;11.17;;;9.90;;
19940;SDS011;10132;50.864;5.176;2022-09-21T08:54:41;10.60;;;9.53;;
19940;SDS011;10132;50.864;5.176;2022-09-21T08:56:47;11.03;;;9.93;;
19940;SDS011;10132;50.864;5.176;2022-09-21T08:58:49;12.47;;;9.70;;
19940;SDS011;10132;50.864;5.176;2022-09-21T09:00:54;10.70;;;9.80;;
19940;SDS011;10132;50.864;5.176;2022-09-21T09:03:12;10.33;;;9.33;;
19940;SDS011;10132;50.864;5.176;2022-09-21T09:05:28;9.60;;;8.70;;
19940;SDS011;10132;50.864;5.176;2022-09-21T09:07:47;9.63;;;8.63;;
19940;SDS011;10132;50.864;5.176;2022-09-21T09:10:13;10.57;;;9.53;;
19940;SDS011;10132;50.864;5.176;2022-09-21T09:12:37;10.57;;;9.67;;
19940;SDS011;10132;50.864;5.176;2022-09-21T09:14:56;10.20;;;9.30;;
19940;SDS011;10132;50.864;5.176;2022-09-21T09:17:26;11.10;;;10.00;;
19940;SDS011;10132;50.864;5.176;2022-09-21T09:19:38;12.83;;;9.33;;
19940;SDS011;10132;50.864;5.176;2022-09-21T09:21:47;10.97;;;9.97;;
19940;SDS011;10132;50.864;5.176;2022-09-21T09:23:50;10.27;;;9.17;;
19940;SDS011;10132;50.864;5.176;2022-09-21T09:26:00;10.40;;;9.30;;
19940;SDS011;10132;50.864;5.176;2022-09-21T09:28:12;10.03;;;8.97;;
19940;SDS011;10132;50.864;5.176;2022-09-21T09:30:22;10.30;;;8.93;;
19940;SDS011;10132;50.864;5.176;2022-09-21T09:32:26;10.03;;;9.03;;
19940;SDS011;10132;50.864;5.176;2022-09-21T09:34:34;9.73;;;8.43;;
19940;SDS011;10132;50.864;5.176;2022-09-21T09:36:42;11.07;;;9.80;;
19940;SDS011;10132;50.864;5.176;2022-09-21T09:38:49;10.00;;;8.00;;
19940;SDS011;10132;50.864;5.176;2022-09-21T09:41:07;11.13;;;8.03;;
19940;SDS011;10132;50.864;5.176;2022-09-21T09:43:28;8.70;;;7.90;;
19940;SDS011;10132;50.864;5.176;2022-09-21T09:45:44;8.63;;;7.80;;
19940;SDS011;10132;50.864;5.176;2022-09-21T09:47:57;9.50;;;7.60;;
19940;SDS011;10132;50.864;5.176;2022-09-21T09:50:15;8.30;;;7.50;;
19940;SDS011;10132;50.864;5.176;2022-09-21T09:52:26;11.13;;;7.50;;
19940;SDS011;10132;50.864;5.176;2022-09-21T09:54:29;8.80;;;7.60;;
19940;SDS011;10132;50.864;5.176;2022-09-21T09:56:34;8.37;;;6.67;;
19940;SDS011;10132;50.864;5.176;2022-09-21T09:58:38;7.57;;;6.77;;
19940;SDS011;10132;50.864;5.176;2022-09-21T10:00:44;8.07;;;6.47;;
19940;SDS011;10132;50.864;5.176;2022-09-21T10:02:48;9.63;;;6.87;;
19940;SDS011;10132;50.864;5.176;2022-09-21T10:04:55;6.83;;;5.67;;
19940;SDS011;10132;50.864;5.176;2022-09-21T10:07:02;7.20;;;5.83;;
19940;SDS011;10132;50.864;5.176;2022-09-21T10:09:17;7.80;;;6.30;;
19940;SDS011;10132;50.864;5.176;2022-09-21T10:11:32;6.82;;;6.05;;
19940;SDS011;10132;50.864;5.176;2022-09-21T10:13:37;9.87;;;5.90;;
19940;SDS011;10132;50.864;5.176;2022-09-21T10:15:41;6.70;;;5.57;;
19940;SDS011;10132;50.864;5.176;2022-09-21T10:17:45;7.80;;;6.72;;
19940;SDS011;10132;50.864;5.176;2022-09-21T10:19:48;6.88;;;5.78;;
19940;SDS011;10132;50.864;5.176;2022-09-21T10:21:59;8.32;;;5.80;;
19940;SDS011;10132;50.864;5.176;2022-09-21T10:24:03;8.00;;;5.18;;
19940;SDS011;10132;50.864;5.176;2022-09-21T10:26:08;6.22;;;4.80;;
19940;SDS011;10132;50.864;5.176;2022-09-21T10:28:14;7.70;;;5.78;;
19940;SDS011;10132;50.864;5.176;2022-09-21T10:30:33;7.28;;;5.20;;
19940;SDS011;10132;50.864;5.176;2022-09-21T10:32:38;7.00;;;4.65;;
19940;SDS011;10132;50.864;5.176;2022-09-21T10:35:00;7.40;;;5.57;;
19940;SDS011;10132;50.864;5.176;2022-09-21T10:37:22;8.68;;;5.20;;
19940;SDS011;10132;50.864;5.176;2022-09-21T10:39:29;8.70;;;5.22;;
19940;SDS011;10132;50.864;5.176;2022-09-21T10:41:32;7.78;;;5.65;;
19940;SDS011;10132;50.864;5.176;2022-09-21T10:43:39;6.97;;;4.90;;
19940;SDS011;10132;50.864;5.176;2022-09-21T10:45:50;6.63;;;5.03;;
19940;SDS011;10132;50.864;5.176;2022-09-21T10:47:55;7.85;;;4.97;;
19940;SDS011;10132;50.864;5.176;2022-09-21T10:49:59;7.40;;;5.18;;
19940;SDS011;10132;50.864;5.176;2022-09-21T10:52:04;7.72;;;5.50;;
19940;SDS011;10132;50.864;5.176;2022-09-21T10:54:06;9.13;;;5.28;;
19940;SDS011;10132;50.864;5.176;2022-09-21T10:56:14;8.02;;;5.53;;
19940;SDS011;10132;50.864;5.176;2022-09-21T10:58:18;9.68;;;4.90;;
19940;SDS011;10132;50.864;5.176;2022-09-21T11:00:28;6.93;;;5.13;;
19940;SDS011;10132;50.864;5.176;2022-09-21T11:02:35;8.93;;;4.55;;
19940;SDS011;10132;50.864;5.176;2022-09-21T11:04:40;5.47;;;3.92;;
19940;SDS011;10132;50.864;5.176;2022-09-21T11:06:46;5.82;;;3.53;;
19940;SDS011;10132;50.864;5.176;2022-09-21T11:08:53;10.03;;;3.30;;
19940;SDS011;10132;50.864;5.176;2022-09-21T11:11:02;5.43;;;2.90;;
19940;SDS011;10132;50.864;5.176;2022-09-21T11:13:22;8.83;;;2.63;;
19940;SDS011;10132;50.864;5.176;2022-09-21T11:15:40;5.73;;;3.10;;
19940;SDS011;10132;50.864;5.176;2022-09-21T11:17:48;6.33;;;3.40;;
19940;SDS011;10132;50.864;5.176;2022-09-21T11:20:01;5.77;;;2.90;;
19940;SDS011;10132;50.864;5.176;2022-09-21T11:22:11;7.37;;;2.60;;
19940;SDS011;10132;50.864;5.176;2022-09-21T11:24:19;3.57;;;2.00;;
19940;SDS011;10132;50.864;5.176;2022-09-21T11:26:28;8.07;;;2.50;;
19940;SDS011;10132;50.864;5.176;2022-09-21T11:28:36;5.72;;;2.50;;
19940;SDS011;10132;50.864;5.176;2022-09-21T11:30:48;5.33;;;2.37;;
19940;SDS011;10132;50.864;5.176;2022-09-21T11:33:05;6.37;;;2.80;;
19940;SDS011;10132;50.864;5.176;2022-09-21T11:35:30;7.83;;;3.30;;
19940;SDS011;10132;50.864;5.176;2022-09-21T11:37:46;5.63;;;2.80;;
19940;SDS011;10132;50.864;5.176;2022-09-21T11:39:55;6.13;;;3.13;;
19940;SDS011;10132;50.864;5.176;2022-09-21T11:42:12;5.97;;;2.33;;
19940;SDS011;10132;50.864;5.176;2022-09-21T11:44:29;4.43;;;1.60;;
19940;SDS011;10132;50.864;5.176;2022-09-21T11:46:44;6.33;;;2.10;;
19940;SDS011;10132;50.864;5.176;2022-09-21T11:48:55;3.90;;;1.55;;
19940;SDS011;10132;50.864;5.176;2022-09-21T11:51:16;5.07;;;1.30;;
19940;SDS011;10132;50.864;5.176;2022-09-21T11:53:45;4.97;;;1.40;;
19940;SDS011;10132;50.864;5.176;2022-09-21T11:56:20;3.83;;;1.40;;
19940;SDS011;10132;50.864;5.176;2022-09-21T11:58:33;3.40;;;1.20;;
19940;SDS011;10132;50.864;5.176;2022-09-21T12:00:41;5.00;;;1.50;;
19940;SDS011;10132;50.864;5.176;2022-09-21T12:05:30;6.20;;;1.60;;
19940;SDS011;10132;50.864;5.176;2022-09-21T12:07:41;3.58;;;1.38;;
19940;SDS011;10132;50.864;5.176;2022-09-21T12:10:00;4.43;;;1.33;;
19940;SDS011;10132;50.864;5.176;2022-09-21T12:12:13;3.40;;;1.30;;
19940;SDS011;10132;50.864;5.176;2022-09-21T12:14:20;3.03;;;1.40;;
19940;SDS011;10132;50.864;5.176;2022-09-21T12:16:30;3.03;;;1.25;;
19940;SDS011;10132;50.864;5.176;2022-09-21T12:18:42;3.55;;;1.30;;
19940;SDS011;10132;50.864;5.176;2022-09-21T12:20:54;3.15;;;1.27;;
19940;SDS011;10132;50.864;5.176;2022-09-21T12:23:03;2.80;;;1.25;;
19940;SDS011;10132;50.864;5.176;2022-09-21T12:25:12;5.18;;;1.83;;
19940;SDS011;10132;50.864;5.176;2022-09-21T12:27:20;4.00;;;1.50;;
19940;SDS011;10132;50.864;5.176;2022-09-21T12:29:29;4.63;;;1.23;;
19940;SDS011;10132;50.864;5.176;2022-09-21T12:31:37;3.53;;;1.15;;
19940;SDS011;10132;50.864;5.176;2022-09-21T12:33:46;4.68;;;1.35;;
19940;SDS011;10132;50.864;5.176;2022-09-21T12:35:52;4.15;;;1.70;;
19940;SDS011;10132;50.864;5.176;2022-09-21T12:38:00;4.95;;;1.50;;
19940;SDS011;10132;50.864;5.176;2022-09-21T12:40:11;3.83;;;1.30;;
19940;SDS011;10132;50.864;5.176;2022-09-21T12:42:25;8.57;;;1.38;;